createdAt,value
2022-10-14T00:00:10.319Z,19.08
2022-10-14T00:02:44.105Z,19.85
2022-10-14T00:05:16.605Z,22.95
2022-10-14T00:07:49.225Z,18.23
2022-10-14T00:10:22.188Z,20.48
2022-10-14T00:12:55.003Z,21.98
2022-10-14T00:15:27.742Z,21.83
2022-10-14T00:18:00.316Z,21.90
2022-10-14T00:20:32.720Z,20.15
2022-10-14T00:23:05.161Z,18.65
2022-10-14T00:25:39.134Z,19.02
2022-10-14T00:28:11.697Z,21.13
2022-10-14T00:30:54.721Z,18.67
2022-10-14T00:33:28.175Z,22.17
2022-10-14T00:36:05.873Z,18.63
2022-10-14T00:38:40.571Z,21.23
2022-10-14T00:41:16.975Z,21.35
2022-10-14T00:43:58.082Z,22.50
2022-10-14T00:46:35.310Z,20.23
2022-10-14T00:49:19.213Z,25.52
2022-10-14T00:51:57.351Z,21.23
2022-10-14T00:54:35.402Z,21.42
2022-10-14T00:57:09.480Z,20.23
2022-10-14T00:59:42.712Z,21.33
2022-10-14T01:02:15.106Z,20.30
2022-10-14T01:04:47.752Z,19.15
2022-10-14T01:07:37.258Z,21.23
2022-10-14T01:10:31.390Z,18.80
2022-10-14T01:13:32.180Z,18.55
2022-10-14T01:16:16.324Z,19.73
2022-10-14T01:19:01.097Z,19.20
2022-10-14T01:21:38.689Z,16.92
2022-10-14T01:24:26.589Z,20.25
2022-10-14T01:27:17.797Z,19.83
2022-10-14T01:30:08.632Z,20.02
2022-10-14T01:33:04.036Z,20.23
2022-10-14T01:35:40.838Z,27.55
2022-10-14T01:38:26.266Z,15.88
2022-10-14T01:41:06.637Z,19.35
2022-10-14T01:43:41.625Z,17.70
2022-10-14T01:46:16.613Z,18.27
2022-10-14T01:48:55.048Z,20.75
2022-10-14T01:51:40.725Z,19.38
2022-10-14T01:54:19.439Z,18.95
2022-10-14T01:56:56.002Z,17.85
2022-10-14T01:59:30.759Z,16.10
2022-10-14T02:02:03.421Z,21.23
2022-10-14T02:04:36.227Z,20.83
2022-10-14T02:07:13.151Z,18.30
2022-10-14T02:10:08.964Z,19.88
2022-10-14T02:13:00.419Z,17.63
2022-10-14T02:16:04.969Z,19.70
2022-10-14T02:18:52.226Z,23.23
2022-10-14T02:21:42.539Z,20.80
2022-10-14T02:24:24.876Z,21.55
2022-10-14T02:27:01.205Z,20.00
2022-10-14T02:29:35.428Z,23.35
2022-10-14T02:32:09.674Z,21.80
2022-10-14T02:34:47.975Z,21.38
2022-10-14T02:37:22.947Z,23.75
2022-10-14T02:40:08.335Z,16.70
2022-10-14T02:42:41.243Z,19.08
2022-10-14T02:45:16.282Z,16.85
2022-10-14T02:47:51.140Z,23.65
2022-10-14T02:50:23.581Z,18.42
2022-10-14T02:52:57.374Z,20.50
2022-10-14T02:55:29.895Z,18.77
2022-10-14T02:58:02.468Z,17.10
2022-10-14T03:00:35.204Z,16.70
2022-10-14T03:03:08.127Z,21.77
2022-10-14T03:05:40.771Z,20.35
2022-10-14T03:08:18.229Z,19.10
2022-10-14T03:10:51.884Z,24.85
2022-10-14T03:13:24.827Z,18.60
2022-10-14T03:15:58.709Z,24.27
2022-10-14T03:18:32.423Z,23.35
2022-10-14T03:21:14.784Z,18.80
2022-10-14T03:23:49.204Z,17.93
2022-10-14T03:26:24.278Z,20.35
2022-10-14T03:31:40.728Z,18.10
2022-10-14T03:34:28.359Z,18.65
2022-10-14T03:37:10.008Z,21.67
2022-10-14T03:39:50.521Z,21.05
2022-10-14T03:42:24.416Z,19.58
2022-10-14T03:44:57.659Z,23.55
2022-10-14T03:47:33.713Z,20.10
2022-10-14T03:50:07.199Z,20.08
2022-10-14T03:52:47.123Z,19.35
2022-10-14T03:55:27.200Z,21.88
2022-10-14T03:58:01.380Z,16.65
2022-10-14T04:00:36.235Z,17.58
2022-10-14T04:03:23.882Z,20.17
2022-10-14T04:05:56.734Z,21.48
2022-10-14T04:08:31.997Z,20.38
2022-10-14T04:11:13.156Z,18.42
2022-10-14T04:13:46.557Z,18.40
2022-10-14T04:16:20.591Z,18.75
2022-10-14T04:19:05.991Z,20.63
2022-10-14T04:21:38.762Z,16.70
2022-10-14T04:24:12.984Z,18.80
2022-10-14T04:26:53.261Z,19.75
2022-10-14T04:29:36.004Z,18.33
2022-10-14T04:32:15.233Z,20.27
2022-10-14T04:34:48.224Z,15.98
2022-10-14T04:37:24.869Z,20.60
2022-10-14T04:40:06.868Z,23.02
2022-10-14T04:42:46.984Z,17.38
2022-10-14T04:45:27.578Z,21.80
2022-10-14T04:48:07.219Z,19.02
2022-10-14T04:50:45.840Z,21.40
2022-10-14T04:53:34.119Z,19.05
2022-10-14T04:56:15.443Z,18.42
2022-10-14T04:59:00.493Z,19.92
2022-10-14T05:01:53.289Z,18.13
2022-10-14T05:04:26.979Z,21.27
2022-10-14T05:09:35.986Z,18.80
2022-10-14T05:12:12.526Z,17.85
2022-10-14T05:14:53.238Z,18.60
2022-10-14T05:17:33.931Z,19.17
2022-10-14T05:20:08.641Z,19.00
2022-10-14T05:22:46.115Z,21.65
2022-10-14T05:27:51.239Z,15.82
2022-10-14T05:30:24.046Z,18.23
2022-10-14T05:32:58.958Z,19.33
2022-10-14T05:35:57.040Z,20.15
2022-10-14T05:38:26.755Z,18.95
2022-10-14T05:40:59.580Z,19.40
2022-10-14T05:43:33.003Z,20.40
2022-10-14T05:46:10.418Z,20.90
2022-10-14T05:48:46.945Z,16.17
2022-10-14T05:51:23.034Z,19.45
2022-10-14T05:54:00.660Z,22.08
2022-10-14T05:56:33.532Z,20.52
2022-10-14T05:59:06.159Z,21.92
2022-10-14T06:01:40.170Z,19.45
2022-10-14T06:04:18.929Z,20.65
2022-10-14T06:06:51.596Z,22.80
2022-10-14T06:09:24.336Z,23.48
2022-10-14T06:11:58.666Z,20.15
2022-10-14T06:14:31.404Z,22.02
2022-10-14T06:17:06.490Z,23.23
2022-10-14T06:19:39.190Z,24.55
2022-10-14T06:22:11.877Z,23.13
2022-10-14T06:24:44.576Z,20.63
2022-10-14T06:27:17.331Z,21.42
2022-10-14T06:29:50.059Z,20.75
2022-10-14T06:32:22.920Z,20.92
2022-10-14T06:34:55.907Z,21.00
2022-10-14T06:37:28.546Z,21.63
2022-10-14T06:40:01.371Z,23.95
2022-10-14T06:42:36.444Z,21.63
2022-10-14T06:45:09.982Z,20.35
2022-10-14T06:47:42.609Z,20.85
2022-10-14T06:50:15.627Z,23.00
2022-10-14T06:52:49.371Z,21.63
2022-10-14T06:55:22.025Z,16.65
2022-10-14T06:57:55.735Z,17.08
2022-10-14T07:00:29.205Z,17.13
2022-10-14T07:03:02.068Z,18.23
2022-10-14T07:05:35.590Z,20.23
2022-10-14T07:08:10.226Z,18.23
2022-10-14T07:10:48.741Z,19.75
2022-10-14T07:13:21.897Z,22.80
2022-10-14T07:15:55.173Z,23.08
2022-10-14T07:18:28.208Z,19.20
2022-10-14T07:21:04.250Z,17.10
2022-10-14T07:23:37.011Z,15.82
2022-10-14T07:26:09.566Z,14.95
2022-10-14T07:28:42.489Z,18.40
2022-10-14T07:31:15.087Z,13.13
2022-10-14T07:33:47.704Z,17.65
2022-10-14T07:36:22.521Z,13.73
2022-10-14T07:38:55.795Z,14.20
2022-10-14T07:41:28.716Z,14.20
2022-10-14T07:44:06.473Z,15.65
2022-10-14T07:46:43.023Z,17.75
2022-10-14T07:49:18.919Z,15.52
2022-10-14T07:51:51.827Z,17.92
2022-10-14T07:54:30.119Z,15.30
2022-10-14T07:57:02.736Z,12.93
2022-10-14T07:59:35.370Z,14.80
2022-10-14T08:02:08.212Z,17.08
2022-10-14T08:04:41.124Z,19.20
2022-10-14T08:07:15.298Z,17.23
2022-10-14T08:09:48.107Z,16.33
2022-10-14T08:12:21.578Z,18.83
2022-10-14T08:14:57.602Z,16.05
2022-10-14T08:17:30.181Z,18.77
2022-10-14T08:20:03.072Z,21.05
2022-10-14T08:22:35.697Z,24.52
2022-10-14T08:25:08.834Z,19.02
2022-10-14T08:27:41.298Z,19.98
2022-10-14T08:30:13.872Z,24.83
2022-10-14T08:32:46.439Z,24.70
2022-10-14T08:35:19.489Z,28.48
2022-10-14T08:38:00.830Z,27.45
2022-10-14T08:40:54.822Z,31.48
2022-10-14T08:43:33.837Z,33.35
2022-10-14T08:46:16.469Z,37.63
2022-10-14T08:48:51.848Z,38.70
2022-10-14T08:54:06.864Z,41.80
2022-10-14T08:56:39.774Z,43.47
2022-10-14T08:59:16.128Z,43.25
2022-10-14T09:01:54.174Z,39.20
2022-10-14T09:04:27.005Z,45.13
2022-10-14T09:07:00.406Z,41.17
2022-10-14T09:09:40.862Z,38.45
2022-10-14T09:12:18.374Z,44.63
2022-10-14T09:15:02.720Z,44.92
2022-10-14T09:17:45.337Z,48.30
2022-10-14T09:20:23.790Z,44.00
2022-10-14T09:23:18.742Z,45.28
2022-10-14T09:25:55.947Z,45.10
2022-10-14T09:28:39.168Z,45.42
2022-10-14T09:31:13.451Z,43.65
2022-10-14T09:33:46.553Z,47.47
2022-10-14T09:36:21.053Z,39.75
2022-10-14T09:38:55.768Z,37.70
2022-10-14T09:41:31.301Z,40.13
2022-10-14T09:46:59.903Z,40.88
2022-10-14T09:49:39.488Z,44.55
2022-10-14T09:52:34.699Z,46.08
2022-10-14T09:55:20.639Z,40.85
2022-10-14T09:58:04.361Z,43.25
2022-10-14T10:00:38.122Z,45.28
2022-10-14T10:03:25.789Z,46.30
2022-10-14T10:06:04.870Z,44.40
2022-10-14T10:08:42.429Z,53.15
2022-10-14T10:11:15.376Z,49.63
2022-10-14T10:13:48.518Z,43.88
2022-10-14T10:16:26.408Z,45.05
2022-10-14T10:19:24.355Z,48.05
2022-10-14T10:25:10.083Z,44.70
2022-10-14T10:27:46.738Z,43.55
2022-10-14T10:30:35.067Z,43.17
2022-10-14T10:33:27.523Z,40.25
2022-10-14T10:36:03.987Z,42.47
2022-10-14T10:38:52.599Z,44.70
2022-10-14T10:41:48.595Z,41.65
2022-10-14T10:44:44.968Z,40.10
2022-10-14T10:50:17.725Z,43.88
2022-10-14T10:52:54.493Z,45.55
2022-10-14T10:55:28.267Z,46.47
2022-10-14T10:58:20.441Z,46.00
2022-10-14T11:01:02.183Z,43.47
2022-10-14T11:03:57.587Z,40.47
2022-10-14T11:06:51.682Z,40.80
2022-10-14T11:10:15.027Z,40.65
2022-10-14T11:13:00.344Z,38.72
2022-10-14T11:15:42.895Z,41.17
2022-10-14T11:18:31.115Z,34.53
2022-10-14T11:21:13.085Z,34.38
2022-10-14T11:24:13.961Z,33.83
2022-10-14T11:27:02.204Z,30.92
2022-10-14T11:30:03.718Z,37.83
2022-10-14T11:32:40.177Z,32.08
2022-10-14T11:35:25.500Z,36.95
2022-10-14T11:38:05.115Z,37.40
2022-10-14T11:40:46.123Z,36.72
2022-10-14T11:43:24.363Z,37.38
2022-10-14T11:46:03.556Z,36.72
2022-10-14T11:48:43.306Z,38.25
2022-10-14T11:51:19.439Z,36.45
2022-10-14T11:54:08.244Z,33.63
2022-10-14T11:57:07.329Z,36.67
2022-10-14T11:59:52.317Z,36.95
2022-10-14T12:02:42.795Z,34.43
2022-10-14T12:05:16.162Z,28.88
2022-10-14T12:08:20.848Z,35.25
2022-10-14T12:11:05.279Z,33.78
2022-10-14T12:13:43.841Z,30.30
2022-10-14T12:16:20.259Z,33.90
2022-10-14T12:18:58.880Z,25.63
2022-10-14T12:21:50.923Z,25.35
2022-10-14T12:24:30.898Z,27.92
2022-10-14T12:27:06.964Z,34.58
2022-10-14T12:29:45.578Z,34.28
2022-10-14T12:32:20.263Z,37.05
2022-10-14T12:34:57.738Z,33.45
2022-10-14T12:37:38.433Z,26.50
2022-10-14T12:40:15.275Z,26.67
2022-10-14T12:42:48.584Z,33.08
2022-10-14T12:45:24.122Z,29.15
2022-10-14T12:50:46.979Z,31.00
2022-10-14T12:53:22.011Z,31.40
2022-10-14T12:56:01.183Z,32.60
2022-10-14T12:58:42.559Z,36.22
2022-10-14T13:01:18.873Z,31.73
2022-10-14T13:04:00.323Z,34.30
2022-10-14T13:06:35.676Z,30.10
2022-10-14T13:11:56.165Z,35.72
2022-10-14T13:14:49.945Z,35.10
2022-10-14T13:17:39.290Z,32.22
2022-10-14T13:20:35.232Z,30.23
2022-10-14T13:23:31.312Z,35.13
2022-10-14T13:26:24.299Z,29.70
2022-10-14T13:29:17.970Z,28.83
2022-10-14T13:32:06.672Z,29.63
2022-10-14T13:34:44.475Z,32.55
2022-10-14T13:37:35.955Z,31.52
2022-10-14T13:40:26.677Z,32.58
2022-10-14T13:43:08.952Z,35.90
2022-10-14T13:45:46.481Z,36.55
2022-10-14T13:48:31.152Z,32.53
2022-10-14T13:51:24.440Z,36.60
2022-10-14T13:54:18.308Z,29.02
2022-10-14T14:00:41.543Z,38.58
2022-10-14T14:05:54.425Z,33.38
2022-10-14T14:08:40.507Z,32.78
2022-10-14T14:11:22.155Z,36.45
2022-10-14T14:14:18.030Z,39.53
2022-10-14T14:17:12.538Z,36.13
2022-10-14T14:20:13.061Z,36.17
2022-10-14T14:22:51.193Z,36.88
2022-10-14T14:25:35.875Z,32.70
2022-10-14T14:28:15.822Z,39.13
2022-10-14T14:30:55.175Z,35.53
2022-10-14T14:33:34.692Z,32.03
2022-10-14T14:36:22.252Z,33.75
2022-10-14T14:39:02.974Z,32.75
2022-10-14T14:41:36.576Z,36.35
2022-10-14T14:44:25.027Z,30.90
2022-10-14T14:47:03.351Z,35.88
2022-10-14T14:49:38.965Z,35.80
2022-10-14T14:52:14.448Z,32.58
2022-10-14T14:54:48.318Z,34.45
2022-10-14T14:57:23.725Z,33.47
2022-10-14T15:00:02.788Z,33.00
2022-10-14T15:02:36.009Z,34.65
2022-10-14T15:05:10.940Z,35.40
2022-10-14T15:07:44.416Z,35.10
2022-10-14T15:10:24.461Z,37.13
2022-10-14T15:12:59.404Z,32.97
2022-10-14T15:15:35.050Z,33.47
2022-10-14T15:18:17.737Z,36.83
2022-10-14T15:20:51.334Z,36.63
2022-10-14T15:23:46.262Z,37.33
2022-10-14T15:26:35.785Z,35.08
2022-10-14T15:29:09.099Z,39.72
2022-10-14T15:31:45.068Z,32.85
2022-10-14T15:34:21.924Z,34.78
2022-10-14T15:36:55.044Z,37.53
2022-10-14T15:39:28.256Z,41.65
2022-10-14T15:42:01.891Z,36.88
2022-10-14T15:44:37.995Z,31.20
2022-10-14T15:47:20.532Z,32.38
2022-10-14T15:49:53.160Z,32.45
2022-10-14T15:52:27.058Z,30.08
2022-10-14T15:55:00.437Z,32.17
2022-10-14T15:57:33.277Z,30.38
2022-10-14T16:00:08.539Z,31.52
2022-10-14T16:02:44.812Z,26.80
2022-10-14T16:05:20.075Z,27.85
2022-10-14T16:07:53.341Z,24.85
2022-10-14T16:10:29.342Z,26.30
2022-10-14T16:13:05.039Z,20.98
2022-10-14T16:15:44.314Z,27.63
2022-10-14T16:18:18.452Z,25.38
2022-10-14T16:20:53.087Z,25.90
2022-10-14T16:23:29.630Z,23.63
2022-10-14T16:26:06.863Z,23.55
2022-10-14T16:28:39.923Z,26.73
2022-10-14T16:31:15.348Z,27.42
2022-10-14T16:36:29.713Z,24.75
2022-10-14T16:41:36.417Z,23.85
2022-10-14T16:44:25.086Z,28.10
2022-10-14T16:47:14.932Z,25.08
2022-10-14T16:49:51.339Z,26.92
2022-10-14T16:52:24.314Z,25.00
2022-10-14T16:54:59.080Z,22.25
2022-10-14T16:57:31.906Z,28.60
2022-10-14T17:00:05.529Z,25.40
2022-10-14T17:02:38.532Z,28.35
2022-10-14T17:05:11.465Z,26.92
2022-10-14T17:07:44.279Z,31.90
2022-10-14T17:10:19.523Z,29.42
2022-10-14T17:12:54.065Z,31.25
2022-10-14T17:15:26.647Z,31.43
2022-10-14T17:17:59.283Z,29.25
2022-10-14T17:20:32.199Z,26.60
2022-10-14T17:23:10.229Z,30.17
2022-10-14T17:25:46.843Z,30.23
2022-10-14T17:28:20.781Z,31.60
2022-10-14T17:30:53.549Z,29.73
2022-10-14T17:33:26.427Z,31.48
2022-10-14T17:36:01.073Z,29.10
2022-10-14T17:38:35.934Z,30.88
2022-10-14T17:41:10.562Z,31.23
2022-10-14T17:43:43.789Z,37.05
2022-10-14T17:46:19.368Z,34.25
2022-10-14T17:48:54.891Z,38.20
2022-10-14T17:51:28.755Z,37.38
2022-10-14T17:54:04.415Z,37.55
2022-10-14T17:56:38.603Z,29.25
2022-10-14T17:59:14.636Z,32.17
2022-10-14T18:02:04.127Z,32.80
2022-10-14T18:04:38.845Z,33.25
2022-10-14T18:07:12.251Z,35.30
2022-10-14T18:09:45.008Z,34.22
2022-10-14T18:12:17.817Z,36.03
2022-10-14T18:14:50.428Z,29.25
2022-10-14T18:17:23.401Z,34.58
2022-10-14T18:19:58.263Z,36.85
2022-10-14T18:22:31.542Z,31.23
2022-10-14T18:25:05.729Z,36.88
2022-10-14T18:27:38.414Z,34.45
2022-10-14T18:30:12.192Z,32.05
2022-10-14T18:32:44.663Z,33.15
2022-10-14T18:35:17.482Z,35.08
2022-10-14T18:37:50.216Z,35.50
2022-10-14T18:40:22.991Z,35.17
2022-10-14T18:42:58.568Z,36.20
2022-10-14T18:45:35.194Z,34.35
2022-10-14T18:48:07.808Z,37.03
2022-10-14T18:50:40.478Z,36.75
2022-10-14T18:53:13.122Z,31.98
2022-10-14T18:55:45.755Z,36.50
2022-10-14T18:58:18.831Z,36.20
2022-10-14T19:00:52.840Z,35.70
2022-10-14T19:03:25.605Z,38.08
2022-10-14T19:05:59.865Z,39.17
2022-10-14T19:08:32.365Z,39.20
2022-10-14T19:11:08.840Z,35.78
2022-10-14T19:13:41.873Z,42.63
2022-10-14T19:16:18.596Z,37.75
2022-10-14T19:18:54.554Z,37.38
2022-10-14T19:21:32.485Z,33.60
2022-10-14T19:24:07.307Z,36.08
2022-10-14T19:26:43.837Z,35.70
2022-10-14T19:29:20.964Z,37.25
2022-10-14T19:31:55.375Z,40.05
2022-10-14T19:34:28.055Z,40.72
2022-10-14T19:37:00.636Z,41.10
2022-10-14T19:39:33.069Z,42.33
2022-10-14T19:42:05.935Z,46.78
2022-10-14T19:44:38.584Z,47.70
2022-10-14T19:47:11.362Z,53.47
2022-10-14T19:49:45.299Z,55.80
2022-10-14T19:52:18.789Z,73.72
2022-10-14T19:54:51.999Z,63.00
2022-10-14T19:57:24.910Z,90.50
2022-10-14T19:59:57.682Z,56.72
2022-10-14T20:02:30.368Z,50.42
2022-10-14T20:05:03.186Z,42.58
2022-10-14T20:07:35.775Z,37.42
2022-10-14T20:10:09.147Z,42.72
2022-10-14T20:12:43.643Z,39.75
2022-10-14T20:15:17.542Z,46.80
2022-10-14T20:17:50.053Z,48.83
2022-10-14T20:20:22.747Z,53.53
2022-10-14T20:22:56.401Z,67.55
2022-10-14T20:25:28.965Z,56.33
2022-10-14T20:28:01.760Z,52.22
2022-10-14T20:30:34.378Z,53.55
2022-10-14T20:33:07.864Z,49.83
2022-10-14T20:35:40.588Z,43.20
2022-10-14T20:38:13.364Z,40.60
2022-10-14T20:40:45.992Z,36.50
2022-10-14T20:43:18.585Z,45.15
2022-10-14T20:45:51.220Z,41.45
2022-10-14T20:48:23.955Z,37.75
2022-10-14T20:50:56.690Z,40.20
2022-10-14T20:53:29.327Z,40.70
2022-10-14T20:56:07.642Z,41.92
2022-10-14T20:58:40.940Z,40.10
2022-10-14T21:01:16.715Z,41.67
2022-10-14T21:03:50.254Z,40.53
2022-10-14T21:06:25.254Z,44.33
2022-10-14T21:08:59.189Z,44.33
2022-10-14T21:11:31.672Z,41.42
2022-10-14T21:14:04.405Z,44.17
2022-10-14T21:16:37.560Z,44.78
2022-10-14T21:19:11.180Z,40.63
2022-10-14T21:21:45.757Z,46.58
2022-10-14T21:24:19.920Z,39.65
2022-10-14T21:26:53.716Z,45.63
2022-10-14T21:29:27.638Z,44.45
2022-10-14T21:32:00.154Z,44.88
2022-10-14T21:34:32.866Z,42.55
2022-10-14T21:37:05.549Z,41.88
2022-10-14T21:39:38.961Z,47.00
2022-10-14T21:42:11.856Z,47.58
2022-10-14T21:44:44.536Z,42.88
2022-10-14T21:47:17.081Z,47.25
2022-10-14T21:49:50.981Z,39.70
2022-10-14T21:52:23.991Z,44.22
2022-10-14T21:54:56.851Z,43.88
2022-10-14T21:57:31.346Z,43.97
2022-10-14T22:00:09.120Z,48.13
2022-10-14T22:02:41.937Z,47.78
2022-10-14T22:05:14.624Z,47.15
2022-10-14T22:07:50.166Z,44.35
2022-10-14T22:10:38.153Z,41.42
2022-10-14T22:13:11.107Z,44.67
2022-10-14T22:15:43.921Z,45.97
2022-10-14T22:18:16.614Z,46.20
2022-10-14T22:20:50.570Z,47.65
2022-10-14T22:23:23.109Z,47.33
2022-10-14T22:25:59.406Z,45.72
2022-10-14T22:28:32.798Z,44.58
2022-10-14T22:31:06.748Z,44.20
2022-10-14T22:33:40.482Z,44.85
2022-10-14T22:36:22.765Z,44.05
2022-10-14T22:38:58.295Z,44.08
2022-10-14T22:41:35.103Z,47.35
2022-10-14T22:44:09.397Z,45.63
2022-10-14T22:46:41.998Z,45.85
2022-10-14T22:49:14.599Z,38.45
2022-10-14T22:51:47.080Z,43.83
2022-10-14T22:54:19.621Z,43.63
2022-10-14T22:56:52.108Z,45.25
2022-10-14T22:59:24.717Z,43.40
2022-10-14T23:01:57.574Z,45.92
2022-10-14T23:04:30.759Z,44.55
2022-10-14T23:07:06.965Z,43.38
2022-10-14T23:09:40.320Z,47.30
2022-10-14T23:12:12.955Z,43.80
2022-10-14T23:14:45.796Z,40.75
2022-10-14T23:17:18.636Z,43.42
2022-10-14T23:19:51.252Z,45.72
2022-10-14T23:22:24.153Z,46.55
2022-10-14T23:24:57.283Z,41.50
2022-10-14T23:27:32.836Z,46.58
2022-10-14T23:30:09.140Z,39.08
2022-10-14T23:32:41.773Z,46.17
2022-10-14T23:35:14.659Z,50.35
2022-10-14T23:37:47.815Z,46.45
2022-10-14T23:40:20.442Z,41.17
2022-10-14T23:42:53.109Z,43.58
2022-10-14T23:45:25.815Z,45.08
2022-10-14T23:47:58.565Z,41.08
2022-10-14T23:50:31.224Z,38.15
2022-10-14T23:53:03.776Z,37.15
2022-10-14T23:55:36.435Z,39.85
2022-10-14T23:58:09.436Z,37.90
